Fleetville, Pennsylvania
Current Conditions -  °F | °C
As of 6:54 PM on Tuesday 25 Nov 2014 (Local Time) from KAVP Reporting Station
Clear Clear  
Wind Chill: 42°   Ceiling: Unl
Heat Index: 44°   Visibility: 10mi
Dew Point: 26°   Wind: 5mph
Humidity: 49%   Direction: 230°SW
Pressure: 30.06"   Gusts: NA
Location:  41.6°N, 75.71°W
Report Text: KAVP 252354Z AUTO 23004KT 10SM CLR 07/M03 A3006 RMK AO2 SLP182 T00671033 10111 20067 53023
Loading
Personal Weather Stations






























Interactive Weather Map New forecast layout! Learn more

10-Day Weather Forecast

Advertisements
Track Severe Weather on mobile